createdAt,value
2023-01-19T00:00:57.674Z,17.50
2023-01-19T00:03:29.258Z,17.60
2023-01-19T00:05:57.774Z,18.60
2023-01-19T00:08:26.398Z,15.60
2023-01-19T00:10:59.624Z,16.70
2023-01-19T00:13:28.232Z,16.40
2023-01-19T00:15:56.834Z,15.20
2023-01-19T00:18:25.884Z,16.70
2023-01-19T00:20:54.064Z,18.60
2023-01-19T00:23:22.501Z,14.90
2023-01-19T00:25:51.392Z,20.80
2023-01-19T00:28:20.071Z,18.10
2023-01-19T00:30:50.399Z,15.10
2023-01-19T00:33:18.748Z,13.70
2023-01-19T00:35:51.701Z,14.40
2023-01-19T00:38:22.937Z,17.40
2023-01-19T00:41:01.130Z,16.10
2023-01-19T00:43:32.556Z,15.50
2023-01-19T00:46:00.833Z,13.80
2023-01-19T00:48:29.580Z,18.40
2023-01-19T00:50:58.123Z,16.50
2023-01-19T00:53:26.692Z,11.90
2023-01-19T00:55:55.154Z,12.20
2023-01-19T00:58:23.523Z,14.70
2023-01-19T01:00:54.693Z,18.40
2023-01-19T01:03:28.299Z,14.60
2023-01-19T01:08:24.598Z,13.90
2023-01-19T01:10:52.769Z,15.30
2023-01-19T01:13:22.336Z,15.70
2023-01-19T01:15:54.929Z,16.00
2023-01-19T01:18:26.816Z,13.00
2023-01-19T01:21:06.308Z,22.60
2023-01-19T01:23:35.603Z,16.80
2023-01-19T01:26:03.739Z,21.20
2023-01-19T01:28:32.238Z,17.10
2023-01-19T01:31:00.525Z,19.40
2023-01-19T01:33:39.993Z,21.10
2023-01-19T01:36:11.844Z,25.30
2023-01-19T01:38:43.132Z,20.20
2023-01-19T01:41:11.528Z,13.70
2023-01-19T01:43:44.107Z,10.40
2023-01-19T01:46:15.697Z,12.70
2023-01-19T01:48:50.771Z,14.10
2023-01-19T01:51:29.799Z,16.40
2023-01-19T01:54:06.964Z,12.70
2023-01-19T01:56:40.416Z,15.40
2023-01-19T01:59:18.101Z,12.80
2023-01-19T02:02:04.799Z,13.20
2023-01-19T02:04:33.325Z,11.00
2023-01-19T02:07:23.546Z,15.60
2023-01-19T02:10:10.625Z,14.80
2023-01-19T02:12:58.336Z,10.00
2023-01-19T02:15:27.178Z,13.60
2023-01-19T02:17:58.566Z,11.60
2023-01-19T02:20:30.924Z,12.90
2023-01-19T02:23:05.717Z,12.90
2023-01-19T02:25:37.698Z,13.10
2023-01-19T02:28:06.458Z,15.10
2023-01-19T02:30:37.321Z,16.80
2023-01-19T02:33:05.556Z,15.60
2023-01-19T02:35:36.298Z,17.60
2023-01-19T02:38:08.054Z,12.30
2023-01-19T02:40:38.751Z,10.40
2023-01-19T02:43:10.152Z,10.60
2023-01-19T02:45:39.805Z,8.90
2023-01-19T02:48:13.651Z,10.90
2023-01-19T02:50:50.097Z,11.40
2023-01-19T02:53:36.227Z,14.90
2023-01-19T02:56:16.036Z,12.40
2023-01-19T02:58:57.195Z,13.20
2023-01-19T03:01:39.618Z,11.90
2023-01-19T03:04:19.613Z,16.00
2023-01-19T03:06:53.291Z,10.70
2023-01-19T03:09:27.065Z,13.80
2023-01-19T03:12:08.526Z,14.30
2023-01-19T03:14:42.105Z,11.00
2023-01-19T03:19:42.188Z,10.20
2023-01-19T03:22:19.601Z,9.40
2023-01-19T03:24:50.519Z,11.10
2023-01-19T03:27:24.431Z,8.40
2023-01-19T03:29:57.976Z,9.00
2023-01-19T03:32:31.955Z,14.60
2023-01-19T03:35:02.898Z,13.10
2023-01-19T03:37:32.953Z,12.40
2023-01-19T03:40:01.071Z,13.70
2023-01-19T03:42:29.845Z,12.10
2023-01-19T03:45:01.787Z,13.70
2023-01-19T03:47:29.954Z,12.10
2023-01-19T03:49:58.607Z,12.30
2023-01-19T03:52:34.896Z,12.20
2023-01-19T03:55:04.970Z,11.60
2023-01-19T03:57:33.170Z,12.40
2023-01-19T04:00:01.499Z,12.90
2023-01-19T04:02:40.121Z,21.00
2023-01-19T04:05:08.832Z,20.00
2023-01-19T04:07:36.977Z,18.80
2023-01-19T04:10:05.466Z,23.60
2023-01-19T04:12:33.637Z,19.70
2023-01-19T04:15:01.774Z,14.30
2023-01-19T04:17:33.519Z,14.90
2023-01-19T04:20:01.664Z,12.90
2023-01-19T04:22:30.568Z,16.50
2023-01-19T04:24:59.388Z,13.40
2023-01-19T04:27:27.557Z,13.60
2023-01-19T04:29:55.858Z,11.60
2023-01-19T04:32:24.200Z,11.10
2023-01-19T04:34:52.492Z,13.20
2023-01-19T04:37:20.647Z,18.30
2023-01-19T04:39:48.680Z,11.70
2023-01-19T04:42:19.917Z,15.70
2023-01-19T04:44:48.666Z,15.50
2023-01-19T04:47:16.839Z,12.60
2023-01-19T04:49:45.240Z,13.40
2023-01-19T04:52:13.635Z,15.60
2023-01-19T04:54:44.888Z,14.60
2023-01-19T04:57:13.142Z,14.70
2023-01-19T04:59:42.034Z,20.50
2023-01-19T05:02:11.619Z,17.30
2023-01-19T05:04:39.809Z,22.00
2023-01-19T05:07:07.853Z,23.40
2023-01-19T05:09:35.879Z,20.80
2023-01-19T05:12:04.153Z,22.70
2023-01-19T05:14:32.413Z,19.50
2023-01-19T05:17:02.303Z,16.00
2023-01-19T05:19:30.679Z,18.90
2023-01-19T05:21:58.863Z,16.70
2023-01-19T05:24:27.200Z,15.60
2023-01-19T05:26:55.675Z,17.80
2023-01-19T05:29:28.931Z,18.60
2023-01-19T05:31:58.187Z,24.90
2023-01-19T05:34:26.604Z,28.10
2023-01-19T05:36:54.737Z,21.10
2023-01-19T05:39:22.887Z,61.00
2023-01-19T05:41:51.156Z,50.60
2023-01-19T05:44:19.274Z,44.80
2023-01-19T05:46:47.495Z,34.30
2023-01-19T05:49:16.162Z,32.60
2023-01-19T05:51:45.542Z,20.50
2023-01-19T05:54:15.648Z,17.90
2023-01-19T05:56:44.176Z,16.20
2023-01-19T05:59:13.575Z,14.20
2023-01-19T06:01:41.926Z,20.10
2023-01-19T06:04:12.351Z,17.40
2023-01-19T06:06:41.034Z,16.70
2023-01-19T06:09:09.596Z,15.00
2023-01-19T06:11:38.007Z,17.00
2023-01-19T06:14:06.462Z,13.50
2023-01-19T06:16:37.796Z,16.50
2023-01-19T06:19:06.551Z,20.30
2023-01-19T06:21:42.653Z,18.70
2023-01-19T06:24:11.692Z,14.70
2023-01-19T06:26:44.080Z,14.50
2023-01-19T06:29:18.461Z,18.00
2023-01-19T06:31:47.007Z,20.00
2023-01-19T06:34:18.274Z,16.20
2023-01-19T06:36:46.769Z,16.10
2023-01-19T06:39:15.030Z,15.80
2023-01-19T06:41:43.502Z,21.60
2023-01-19T06:44:11.831Z,21.60
2023-01-19T06:46:40.357Z,19.40
2023-01-19T06:49:08.959Z,20.70
2023-01-19T06:51:37.676Z,23.90
2023-01-19T06:54:06.148Z,31.90
2023-01-19T06:56:34.271Z,26.90
2023-01-19T06:59:08.474Z,25.80
2023-01-19T07:01:39.093Z,20.50
2023-01-19T07:04:14.329Z,18.40
2023-01-19T07:06:42.812Z,17.30
2023-01-19T07:09:14.603Z,18.50
2023-01-19T07:11:49.077Z,18.90
2023-01-19T07:14:19.805Z,16.40
2023-01-19T07:17:02.205Z,19.30
2023-01-19T07:19:31.443Z,20.00
2023-01-19T07:22:08.611Z,24.10
2023-01-19T07:24:38.247Z,18.00
2023-01-19T07:27:06.862Z,16.70
2023-01-19T07:29:35.155Z,24.80
2023-01-19T07:32:09.687Z,18.30
2023-01-19T07:34:42.638Z,20.80
2023-01-19T07:37:16.827Z,17.20
2023-01-19T07:39:45.404Z,15.20
2023-01-19T07:42:14.012Z,15.40
2023-01-19T07:44:45.265Z,15.60
2023-01-19T07:47:13.539Z,13.40
2023-01-19T07:49:41.936Z,13.80
2023-01-19T07:52:17.469Z,17.60
2023-01-19T07:54:51.002Z,19.90
2023-01-19T07:57:19.390Z,17.60
2023-01-19T07:59:47.612Z,17.40
2023-01-19T08:02:17.207Z,17.30
2023-01-19T08:04:48.132Z,16.50
2023-01-19T08:07:16.171Z,17.40
2023-01-19T08:09:44.401Z,17.80
2023-01-19T08:12:13.317Z,18.00
2023-01-19T08:14:41.541Z,22.00
2023-01-19T08:17:14.080Z,19.70
2023-01-19T08:19:43.457Z,21.70
2023-01-19T08:22:14.659Z,23.40
2023-01-19T08:24:42.952Z,25.40
2023-01-19T08:27:12.124Z,21.60
2023-01-19T08:29:40.664Z,23.20
2023-01-19T08:32:09.205Z,41.30
2023-01-19T08:34:37.938Z,30.30
2023-01-19T08:37:09.114Z,64.80
2023-01-19T08:39:40.041Z,55.70
2023-01-19T08:42:10.984Z,51.10
2023-01-19T08:44:43.867Z,42.30
2023-01-19T08:47:21.265Z,91.50
2023-01-19T08:49:49.473Z,44.30
2023-01-19T08:52:17.502Z,26.80
2023-01-19T08:54:46.064Z,32.20
2023-01-19T08:57:15.496Z,33.10
2023-01-19T08:59:43.616Z,29.60
2023-01-19T09:02:14.844Z,27.70
2023-01-19T09:04:43.290Z,31.10
2023-01-19T09:07:11.593Z,27.30
2023-01-19T09:09:43.427Z,28.20
2023-01-19T09:12:11.935Z,28.30
2023-01-19T09:14:40.082Z,36.20
2023-01-19T09:17:08.267Z,35.30
2023-01-19T09:19:36.279Z,28.30
2023-01-19T09:22:07.980Z,32.00
2023-01-19T09:24:36.883Z,25.60
2023-01-19T09:27:05.230Z,23.10
2023-01-19T09:29:33.673Z,32.20
2023-01-19T09:32:02.687Z,28.00
2023-01-19T09:34:31.517Z,39.20
2023-01-19T09:36:59.781Z,36.60
2023-01-19T09:39:27.888Z,37.30
2023-01-19T09:42:08.749Z,30.80
2023-01-19T09:44:37.365Z,26.20
2023-01-19T09:47:15.380Z,27.60
2023-01-19T09:49:48.861Z,25.50
2023-01-19T09:54:57.836Z,37.30
2023-01-19T09:57:27.815Z,28.70
2023-01-19T09:59:59.732Z,27.00
2023-01-19T10:02:46.256Z,24.40
2023-01-19T10:05:26.474Z,36.40
2023-01-19T10:08:17.262Z,32.60
2023-01-19T10:10:57.648Z,27.90
2023-01-19T10:13:35.124Z,17.00
2023-01-19T10:16:31.609Z,19.60
2023-01-19T10:19:12.500Z,20.20
2023-01-19T10:21:43.759Z,21.30
2023-01-19T10:24:18.475Z,25.30
2023-01-19T10:26:55.723Z,98.60
2023-01-19T10:29:37.888Z,25.10
2023-01-19T10:32:14.070Z,23.90
2023-01-19T10:34:42.702Z,30.30
2023-01-19T10:37:19.101Z,30.90
2023-01-19T10:40:01.094Z,34.00
2023-01-19T10:42:32.546Z,27.20
2023-01-19T10:45:00.811Z,22.20
2023-01-19T10:47:36.435Z,21.10
2023-01-19T10:50:30.808Z,25.30
2023-01-19T10:53:04.733Z,24.00
2023-01-19T10:55:38.750Z,30.90
2023-01-19T10:58:29.787Z,33.60
2023-01-19T11:01:13.922Z,40.20
2023-01-19T11:03:46.475Z,55.40
2023-01-19T11:06:18.767Z,59.40
2023-01-19T11:08:51.339Z,45.80
2023-01-19T11:11:24.587Z,34.70
2023-01-19T11:14:18.668Z,29.90
2023-01-19T11:16:57.272Z,30.30
2023-01-19T11:19:29.164Z,28.80
2023-01-19T11:22:22.458Z,34.70
2023-01-19T11:24:50.697Z,31.20
2023-01-19T11:27:22.171Z,36.70
2023-01-19T11:29:58.939Z,26.80
2023-01-19T11:32:27.585Z,29.40
2023-01-19T11:34:56.234Z,29.60
2023-01-19T11:37:30.299Z,28.60
2023-01-19T11:40:00.503Z,28.60
2023-01-19T11:42:33.213Z,32.80
2023-01-19T11:45:12.538Z,33.50
2023-01-19T11:47:44.350Z,35.70
2023-01-19T11:50:22.606Z,35.80
2023-01-19T11:53:30.798Z,30.30
2023-01-19T11:56:02.941Z,34.80
2023-01-19T11:58:33.365Z,32.40
2023-01-19T12:01:35.762Z,27.00
2023-01-19T12:04:17.874Z,38.20
2023-01-19T12:06:53.003Z,29.40
2023-01-19T12:09:34.235Z,19.90
2023-01-19T12:12:17.299Z,23.10
2023-01-19T12:14:57.199Z,21.20
2023-01-19T12:17:36.796Z,26.30
2023-01-19T12:20:26.034Z,46.30
2023-01-19T12:23:03.675Z,24.10
2023-01-19T12:26:27.979Z,23.90
2023-01-19T12:29:06.006Z,21.90
2023-01-19T12:31:35.225Z,19.20
2023-01-19T12:34:27.246Z,17.10
2023-01-19T12:37:00.449Z,20.70
2023-01-19T12:39:32.469Z,22.30
2023-01-19T12:42:13.806Z,30.60
2023-01-19T12:44:43.709Z,25.40
2023-01-19T12:47:14.553Z,27.30
2023-01-19T12:49:45.826Z,27.80
2023-01-19T12:52:30.730Z,26.30
2023-01-19T12:55:00.958Z,24.70
2023-01-19T12:57:58.428Z,32.80
2023-01-19T13:00:26.484Z,23.30
2023-01-19T13:02:57.036Z,38.90
2023-01-19T13:05:32.850Z,33.30
2023-01-19T13:08:11.438Z,29.70
2023-01-19T13:11:19.888Z,24.00
2023-01-19T13:13:56.331Z,29.30
2023-01-19T13:17:04.439Z,27.80
2023-01-19T13:19:47.577Z,27.90
2023-01-19T13:23:02.681Z,15.80
2023-01-19T13:25:35.198Z,23.80
2023-01-19T13:28:12.167Z,20.70
2023-01-19T13:30:53.226Z,20.00
2023-01-19T13:33:24.275Z,21.40
2023-01-19T13:35:58.810Z,18.60
2023-01-19T13:38:29.501Z,24.80
2023-01-19T13:41:04.889Z,16.40
2023-01-19T13:43:38.071Z,14.40
2023-01-19T13:46:06.472Z,13.10
2023-01-19T13:48:34.999Z,13.90
2023-01-19T13:51:19.033Z,13.80
2023-01-19T13:53:58.161Z,13.60
2023-01-19T13:56:28.658Z,11.80
2023-01-19T13:59:13.571Z,18.20
2023-01-19T14:01:45.002Z,10.90
2023-01-19T14:04:31.441Z,11.50
2023-01-19T14:07:06.209Z,10.70
2023-01-19T14:09:34.668Z,12.40
2023-01-19T14:12:17.535Z,11.10
2023-01-19T14:14:49.750Z,8.50
2023-01-19T14:17:29.022Z,20.00
2023-01-19T14:19:58.903Z,29.60
2023-01-19T14:22:46.962Z,14.90
2023-01-19T14:25:52.616Z,5.60
2023-01-19T14:28:49.561Z,7.00
2023-01-19T14:31:21.756Z,9.50
2023-01-19T14:33:55.309Z,11.40
2023-01-19T14:36:38.141Z,9.80
2023-01-19T14:39:21.228Z,10.30
2023-01-19T14:41:54.946Z,3.50
2023-01-19T14:44:43.639Z,3.00
2023-01-19T14:47:29.758Z,3.90
2023-01-19T14:50:02.656Z,4.90
2023-01-19T14:52:55.298Z,6.40
2023-01-19T14:55:28.981Z,4.40
2023-01-19T14:57:57.140Z,3.20
2023-01-19T15:00:26.543Z,3.20
2023-01-19T15:02:54.709Z,8.30
2023-01-19T15:05:23.458Z,5.30
2023-01-19T15:07:53.293Z,5.00
2023-01-19T15:10:24.065Z,3.80
2023-01-19T15:12:56.997Z,6.10
2023-01-19T15:15:33.685Z,5.80
2023-01-19T15:18:07.117Z,4.00
2023-01-19T15:20:35.274Z,2.00
2023-01-19T15:23:03.648Z,3.80
2023-01-19T15:25:32.100Z,3.40
2023-01-19T15:28:01.644Z,4.80
2023-01-19T15:30:33.675Z,4.50
2023-01-19T15:33:02.505Z,5.20
2023-01-19T15:35:30.853Z,7.20
2023-01-19T15:37:59.072Z,4.60
2023-01-19T15:40:30.570Z,2.60
2023-01-19T15:42:59.327Z,3.40
2023-01-19T15:45:36.959Z,3.40
2023-01-19T15:48:12.152Z,3.80
2023-01-19T15:50:45.233Z,9.30
2023-01-19T15:53:18.790Z,4.20
2023-01-19T15:55:56.838Z,4.70
2023-01-19T15:58:27.552Z,5.30
2023-01-19T16:00:58.260Z,3.80
2023-01-19T16:03:26.634Z,3.90
2023-01-19T16:05:54.897Z,2.30
2023-01-19T16:08:23.193Z,1.90
2023-01-19T16:10:53.742Z,2.50
2023-01-19T16:13:22.337Z,3.40
2023-01-19T16:15:50.796Z,1.60
2023-01-19T16:18:21.889Z,2.20
2023-01-19T16:20:50.279Z,1.30
2023-01-19T16:23:21.052Z,5.00
2023-01-19T16:26:00.709Z,3.90
2023-01-19T16:28:29.165Z,2.80
2023-01-19T16:30:57.883Z,1.80
2023-01-19T16:33:33.899Z,4.10
2023-01-19T16:36:27.719Z,9.40
2023-01-19T16:38:59.880Z,15.70
2023-01-19T16:41:38.152Z,18.10
2023-01-19T16:44:11.312Z,20.30
2023-01-19T16:46:47.073Z,19.70
2023-01-19T16:49:28.525Z,26.40
2023-01-19T16:51:58.517Z,16.50
2023-01-19T16:54:29.977Z,9.40
2023-01-19T16:56:58.783Z,15.30
2023-01-19T16:59:27.483Z,15.90
2023-01-19T17:01:57.223Z,13.10
2023-01-19T17:04:28.105Z,14.20
2023-01-19T17:06:56.684Z,13.20
2023-01-19T17:09:27.392Z,11.40
2023-01-19T17:11:58.202Z,13.20
2023-01-19T17:14:29.062Z,11.90
2023-01-19T17:17:03.766Z,10.70
2023-01-19T17:19:32.228Z,12.10
2023-01-19T17:22:00.453Z,16.50
2023-01-19T17:24:32.095Z,11.20
2023-01-19T17:27:03.573Z,10.60
2023-01-19T17:29:32.039Z,12.50
2023-01-19T17:32:00.313Z,13.30
2023-01-19T17:34:28.869Z,15.00
2023-01-19T17:37:07.458Z,17.90
2023-01-19T17:39:41.317Z,14.80
2023-01-19T17:42:12.105Z,9.60
2023-01-19T17:44:45.106Z,14.60
2023-01-19T17:47:24.713Z,13.40
2023-01-19T17:49:53.117Z,12.30
2023-01-19T17:52:26.300Z,14.10
2023-01-19T17:55:00.547Z,12.90
2023-01-19T17:57:28.969Z,11.70
2023-01-19T17:59:57.374Z,13.80
2023-01-19T18:02:37.320Z,13.20
2023-01-19T18:05:14.188Z,18.60
2023-01-19T18:07:44.647Z,15.40
2023-01-19T18:10:14.111Z,24.00
2023-01-19T18:12:49.788Z,21.90
2023-01-19T18:15:23.540Z,18.30
2023-01-19T18:17:57.848Z,16.50
2023-01-19T18:20:32.296Z,17.20
2023-01-19T18:23:00.579Z,19.60
2023-01-19T18:25:29.322Z,14.40
2023-01-19T18:28:00.154Z,19.60
2023-01-19T18:30:32.111Z,13.80
2023-01-19T18:33:04.036Z,17.70
2023-01-19T18:35:40.392Z,28.90
2023-01-19T18:38:17.010Z,29.60
2023-01-19T18:40:50.098Z,34.30
2023-01-19T18:43:19.238Z,27.70
2023-01-19T18:45:50.427Z,28.90
2023-01-19T18:48:21.363Z,36.00
2023-01-19T18:50:52.262Z,30.50
2023-01-19T18:53:23.928Z,32.10
2023-01-19T18:56:02.161Z,28.90
2023-01-19T18:58:36.800Z,32.90
2023-01-19T19:01:18.087Z,27.20
2023-01-19T19:03:46.764Z,30.00
2023-01-19T19:06:21.730Z,25.90
2023-01-19T19:08:58.024Z,29.50
2023-01-19T19:11:27.750Z,25.10
2023-01-19T19:14:01.610Z,26.60
2023-01-19T19:16:31.670Z,27.80
2023-01-19T19:19:04.395Z,24.90
2023-01-19T19:21:38.266Z,25.50
2023-01-19T19:24:11.424Z,27.10
2023-01-19T19:26:42.373Z,26.00
2023-01-19T19:29:16.405Z,83.30
2023-01-19T19:32:00.379Z,48.40
2023-01-19T19:34:33.842Z,44.30
2023-01-19T19:37:07.448Z,85.20
2023-01-19T19:39:36.161Z,101.10
2023-01-19T19:42:07.571Z,67.40
2023-01-19T19:44:36.129Z,47.10
2023-01-19T19:47:04.388Z,59.70
2023-01-19T19:49:35.497Z,65.30
2023-01-19T19:54:35.056Z,50.30
2023-01-19T19:57:03.865Z,47.90
2023-01-19T19:59:32.205Z,49.60
2023-01-19T20:02:03.941Z,47.20
2023-01-19T20:04:36.930Z,45.80
2023-01-19T20:07:07.820Z,49.10
2023-01-19T20:09:46.741Z,47.30
2023-01-19T20:12:15.018Z,43.00
2023-01-19T20:14:43.640Z,49.00
2023-01-19T20:17:12.175Z,53.70
2023-01-19T20:19:40.681Z,45.40
2023-01-19T20:22:14.724Z,42.10
2023-01-19T20:24:43.426Z,44.30
2023-01-19T20:27:11.768Z,50.60
2023-01-19T20:29:40.250Z,44.50
2023-01-19T20:32:12.090Z,41.10
2023-01-19T20:34:40.437Z,38.60
2023-01-19T20:37:09.535Z,33.20
2023-01-19T20:39:42.332Z,27.90
2023-01-19T20:42:16.463Z,29.10
2023-01-19T20:44:50.502Z,38.70
2023-01-19T20:47:21.389Z,29.00
2023-01-19T20:49:49.896Z,20.50
2023-01-19T20:52:21.616Z,22.50
2023-01-19T20:54:52.996Z,22.10
2023-01-19T20:57:30.309Z,19.60
2023-01-19T20:59:58.669Z,16.50
2023-01-19T21:02:28.605Z,20.80
2023-01-19T21:04:57.143Z,20.80
2023-01-19T21:07:25.944Z,18.30
2023-01-19T21:09:59.752Z,13.80
2023-01-19T21:12:28.042Z,17.30
2023-01-19T21:15:01.182Z,21.30
2023-01-19T21:17:29.734Z,16.00
2023-01-19T21:20:00.394Z,16.20
2023-01-19T21:22:34.296Z,21.50
2023-01-19T21:25:11.193Z,19.50
2023-01-19T21:27:42.440Z,20.10
2023-01-19T21:30:11.368Z,17.50
2023-01-19T21:32:40.051Z,21.80
2023-01-19T21:35:11.914Z,23.60
2023-01-19T21:37:40.829Z,17.50
2023-01-19T21:40:10.297Z,20.10
2023-01-19T21:42:47.040Z,22.90
2023-01-19T21:45:26.337Z,18.20
2023-01-19T21:48:00.484Z,14.80
2023-01-19T21:50:29.186Z,20.30
2023-01-19T21:52:58.153Z,17.30
2023-01-19T21:55:34.049Z,16.00
2023-01-19T21:58:06.692Z,15.90
2023-01-19T22:00:46.502Z,15.30
2023-01-19T22:03:24.559Z,16.30
2023-01-19T22:05:53.596Z,21.40
2023-01-19T22:08:29.732Z,15.50
2023-01-19T22:11:13.265Z,21.20
2023-01-19T22:13:48.830Z,19.80
2023-01-19T22:16:27.013Z,24.40
2023-01-19T22:19:01.139Z,25.60
2023-01-19T22:21:36.979Z,28.50
2023-01-19T22:24:12.128Z,37.00
2023-01-19T22:26:45.421Z,32.50
2023-01-19T22:29:16.804Z,31.90
2023-01-19T22:31:55.973Z,25.70
2023-01-19T22:34:27.530Z,20.30
2023-01-19T22:36:58.703Z,19.90
2023-01-19T22:39:29.974Z,15.60
2023-01-19T22:42:17.424Z,19.00
2023-01-19T22:44:50.711Z,21.10
2023-01-19T22:47:24.794Z,22.20
2023-01-19T22:49:55.359Z,18.90
2023-01-19T22:52:26.265Z,17.70
2023-01-19T22:55:00.170Z,20.30
2023-01-19T22:57:37.553Z,20.00
2023-01-19T23:00:19.773Z,20.90
2023-01-19T23:02:51.201Z,22.20
2023-01-19T23:05:19.454Z,18.20
2023-01-19T23:07:47.764Z,22.30
2023-01-19T23:10:16.297Z,24.00
2023-01-19T23:12:46.663Z,17.60
2023-01-19T23:15:15.363Z,18.40
2023-01-19T23:17:47.327Z,16.60
2023-01-19T23:20:18.671Z,18.90
2023-01-19T23:22:46.787Z,17.90
2023-01-19T23:25:17.210Z,18.20
2023-01-19T23:27:45.438Z,18.70
2023-01-19T23:30:17.443Z,17.00
2023-01-19T23:32:49.279Z,21.30
2023-01-19T23:35:20.558Z,15.50
2023-01-19T23:37:49.002Z,18.30
2023-01-19T23:40:17.311Z,20.00
2023-01-19T23:42:45.583Z,19.50
2023-01-19T23:45:16.504Z,18.80
2023-01-19T23:47:47.124Z,19.30
2023-01-19T23:50:15.303Z,19.80
2023-01-19T23:52:44.070Z,17.80
2023-01-19T23:55:12.834Z,18.20
2023-01-19T23:57:41.195Z,23.70
